createdAt,value
2022-12-03T00:00:14.151Z,86.70
2022-12-03T00:02:42.039Z,86.37
2022-12-03T00:05:11.015Z,86.93
2022-12-03T00:07:40.173Z,87.00
2022-12-03T00:10:09.485Z,86.95
2022-12-03T00:12:37.179Z,86.22
2022-12-03T00:15:05.798Z,86.48
2022-12-03T00:17:33.505Z,86.69
2022-12-03T00:20:01.705Z,86.26
2022-12-03T00:22:29.360Z,86.60
2022-12-03T00:24:58.348Z,86.78
2022-12-03T00:27:26.453Z,86.57
2022-12-03T00:29:54.484Z,86.72
2022-12-03T00:32:22.147Z,86.15
2022-12-03T00:34:50.620Z,86.40
2022-12-03T00:37:18.431Z,86.58
2022-12-03T00:39:47.201Z,86.60
2022-12-03T00:42:16.209Z,86.29
2022-12-03T00:44:44.497Z,86.27
2022-12-03T00:47:12.759Z,86.59
2022-12-03T00:49:41.474Z,86.21
2022-12-03T00:52:09.104Z,85.75
2022-12-03T00:54:37.224Z,85.67
2022-12-03T00:57:05.300Z,86.08
2022-12-03T00:59:35.072Z,85.49
2022-12-03T01:02:02.774Z,85.74
2022-12-03T01:04:31.231Z,85.70
2022-12-03T01:06:58.879Z,85.86
2022-12-03T01:09:26.786Z,85.60
2022-12-03T01:11:54.458Z,85.82
2022-12-03T01:14:22.822Z,86.25
2022-12-03T01:16:52.005Z,86.28
2022-12-03T01:19:19.908Z,86.02
2022-12-03T01:21:49.719Z,85.82
2022-12-03T01:24:18.691Z,86.56
2022-12-03T01:26:47.106Z,86.39
2022-12-03T01:29:15.121Z,86.72
2022-12-03T01:32:16.178Z,86.23
2022-12-03T01:34:45.564Z,86.80
2022-12-03T01:37:13.413Z,86.66
2022-12-03T01:39:41.093Z,87.23
2022-12-03T01:42:10.482Z,87.12
2022-12-03T01:44:39.455Z,86.73
2022-12-03T01:47:11.631Z,86.93
2022-12-03T01:49:43.254Z,87.07
2022-12-03T01:52:15.454Z,86.64
2022-12-03T01:54:47.658Z,86.40
2022-12-03T01:57:22.579Z,86.85
2022-12-03T01:59:51.230Z,86.62
2022-12-03T02:02:23.895Z,87.22
2022-12-03T02:04:53.210Z,86.64
2022-12-03T02:07:26.426Z,86.50
2022-12-03T02:09:55.518Z,86.94
2022-12-03T02:12:28.883Z,87.20
2022-12-03T02:14:56.839Z,86.92
2022-12-03T02:17:25.580Z,86.96
2022-12-03T02:19:53.911Z,86.96
2022-12-03T02:22:38.452Z,87.10
2022-12-03T02:25:18.941Z,86.63
2022-12-03T02:27:47.948Z,86.82
2022-12-03T02:30:19.921Z,87.57
2022-12-03T02:32:48.533Z,87.44
2022-12-03T02:35:18.624Z,86.89
2022-12-03T02:37:49.276Z,87.10
2022-12-03T02:40:21.517Z,86.97
2022-12-03T02:42:52.640Z,86.55
2022-12-03T02:45:24.092Z,86.66
2022-12-03T02:47:54.826Z,86.15
2022-12-03T02:50:26.667Z,86.07
2022-12-03T02:52:56.979Z,87.10
2022-12-03T02:55:30.772Z,86.97
2022-12-03T02:58:04.190Z,86.66
2022-12-03T03:00:32.793Z,86.57
2022-12-03T03:03:01.569Z,86.48
2022-12-03T03:05:29.433Z,86.24
2022-12-03T03:08:00.543Z,86.76
2022-12-03T03:10:31.085Z,86.74
2022-12-03T03:12:59.834Z,86.76
2022-12-03T03:15:27.528Z,86.89
2022-12-03T03:17:56.503Z,86.68
2022-12-03T03:20:24.188Z,86.20
2022-12-03T03:22:52.382Z,86.02
2022-12-03T03:25:22.358Z,85.88
2022-12-03T03:27:52.325Z,86.42
2022-12-03T03:30:20.151Z,85.80
2022-12-03T03:32:48.717Z,85.90
2022-12-03T03:35:17.875Z,86.38
2022-12-03T03:37:46.644Z,86.30
2022-12-03T03:40:14.430Z,86.74
2022-12-03T03:42:42.286Z,86.34
2022-12-03T03:45:11.860Z,86.03
2022-12-03T03:47:40.474Z,85.54
2022-12-03T03:50:10.704Z,86.12
2022-12-03T03:52:40.990Z,86.04
2022-12-03T03:55:11.210Z,85.96
2022-12-03T03:57:40.532Z,87.15
2022-12-03T04:00:09.713Z,87.04
2022-12-03T04:02:39.143Z,86.34
2022-12-03T04:05:07.932Z,86.44
2022-12-03T04:07:35.951Z,87.16
2022-12-03T04:10:24.561Z,87.23
2022-12-03T04:13:00.517Z,87.08
2022-12-03T04:15:29.052Z,87.14
2022-12-03T04:18:17.257Z,86.74
2022-12-03T04:20:45.021Z,87.23
2022-12-03T04:23:12.018Z,86.77
2022-12-03T04:25:57.259Z,86.66
2022-12-03T04:28:42.976Z,87.25
2022-12-03T04:31:24.821Z,87.10
2022-12-03T04:34:26.733Z,86.64
2022-12-03T04:36:56.243Z,87.07
2022-12-03T04:39:24.299Z,86.86
2022-12-03T04:41:51.964Z,86.72
2022-12-03T04:44:36.564Z,87.32
2022-12-03T04:47:07.277Z,86.68
2022-12-03T04:49:37.956Z,86.78
2022-12-03T04:52:05.906Z,86.64
2022-12-03T04:54:34.212Z,86.14
2022-12-03T04:57:01.987Z,86.59
2022-12-03T04:59:30.413Z,86.44
2022-12-03T05:01:58.965Z,87.20
2022-12-03T05:04:27.584Z,86.99
2022-12-03T05:06:56.695Z,87.06
2022-12-03T05:09:24.622Z,86.70
2022-12-03T05:11:52.284Z,87.07
2022-12-03T05:14:20.117Z,87.15
2022-12-03T05:16:47.860Z,87.45
2022-12-03T05:19:15.903Z,87.49
2022-12-03T05:21:42.552Z,86.57
2022-12-03T05:24:11.893Z,86.97
2022-12-03T05:26:39.515Z,87.31
2022-12-03T05:29:07.668Z,87.71
2022-12-03T05:31:35.324Z,87.47
2022-12-03T05:34:04.259Z,87.57
2022-12-03T05:36:31.909Z,87.51
2022-12-03T05:38:59.929Z,87.55
2022-12-03T05:41:46.400Z,87.58
2022-12-03T05:44:18.844Z,87.39
2022-12-03T05:46:47.895Z,87.46
2022-12-03T05:49:15.524Z,87.17
2022-12-03T05:51:44.043Z,87.67
2022-12-03T05:54:12.420Z,87.67
2022-12-03T05:56:41.408Z,87.58
2022-12-03T05:59:09.173Z,87.43
2022-12-03T06:01:36.784Z,88.05
2022-12-03T06:04:05.249Z,87.75
2022-12-03T06:06:32.920Z,87.56
2022-12-03T06:09:00.867Z,87.67
2022-12-03T06:11:29.802Z,87.12
2022-12-03T06:13:59.252Z,87.14
2022-12-03T06:16:27.214Z,87.68
2022-12-03T06:18:55.835Z,87.52
2022-12-03T06:21:23.461Z,88.19
2022-12-03T06:23:51.097Z,87.81
2022-12-03T06:26:18.726Z,87.57
2022-12-03T06:28:47.938Z,87.68
2022-12-03T06:31:17.345Z,87.21
2022-12-03T06:33:45.045Z,87.74
2022-12-03T06:36:12.736Z,87.19
2022-12-03T06:38:40.410Z,87.71
2022-12-03T06:41:08.127Z,87.75
2022-12-03T06:43:35.760Z,87.59
2022-12-03T06:46:03.496Z,87.96
2022-12-03T06:48:32.538Z,87.86
2022-12-03T06:51:00.799Z,87.68
2022-12-03T06:53:28.551Z,87.48
2022-12-03T06:55:56.667Z,86.86
2022-12-03T06:58:24.374Z,86.70
2022-12-03T07:00:52.677Z,86.49
2022-12-03T07:03:21.181Z,87.10
2022-12-03T07:05:50.214Z,87.18
2022-12-03T07:08:17.933Z,87.36
2022-12-03T07:10:46.003Z,87.78
2022-12-03T07:13:13.632Z,86.93
2022-12-03T07:15:41.366Z,87.74
2022-12-03T07:18:09.119Z,87.52
2022-12-03T07:20:37.653Z,87.86
2022-12-03T07:23:06.716Z,87.24
2022-12-03T07:25:34.716Z,87.79
2022-12-03T07:28:02.326Z,87.25
2022-12-03T07:30:30.687Z,87.50
2022-12-03T07:32:58.341Z,87.68
2022-12-03T07:35:26.058Z,87.82
2022-12-03T07:37:53.691Z,88.18
2022-12-03T07:40:23.249Z,87.74
2022-12-03T07:42:50.885Z,88.02
2022-12-03T07:45:19.311Z,87.53
2022-12-03T07:47:46.949Z,87.93
2022-12-03T07:50:15.558Z,87.73
2022-12-03T07:52:43.243Z,88.08
2022-12-03T07:55:13.247Z,88.11
2022-12-03T07:57:42.843Z,88.06
2022-12-03T08:00:12.416Z,87.73
2022-12-03T08:02:40.131Z,87.36
2022-12-03T08:05:08.881Z,86.46
2022-12-03T08:07:36.725Z,87.21
2022-12-03T08:10:05.400Z,87.06
2022-12-03T08:12:40.844Z,86.73
2022-12-03T08:15:16.129Z,87.40
2022-12-03T08:17:45.519Z,87.16
2022-12-03T08:20:18.824Z,87.52
2022-12-03T08:22:49.105Z,86.79
2022-12-03T08:25:22.286Z,86.57
2022-12-03T08:27:50.828Z,86.04
2022-12-03T08:30:20.819Z,86.14
2022-12-03T08:32:49.182Z,85.63
2022-12-03T08:35:23.426Z,86.24
2022-12-03T08:37:58.149Z,85.56
2022-12-03T08:40:34.776Z,86.28
2022-12-03T08:43:02.709Z,86.24
2022-12-03T08:45:42.050Z,85.72
2022-12-03T08:48:25.437Z,85.80
2022-12-03T08:50:55.635Z,85.20
2022-12-03T08:53:33.702Z,84.99
2022-12-03T08:56:03.065Z,85.32
2022-12-03T08:58:49.755Z,85.42
2022-12-03T09:01:34.466Z,85.51
2022-12-03T09:04:19.719Z,85.38
2022-12-03T09:06:48.435Z,85.64
2022-12-03T09:09:16.422Z,85.43
2022-12-03T09:11:44.803Z,85.29
2022-12-03T09:14:18.364Z,85.18
2022-12-03T09:16:47.953Z,85.12
2022-12-03T09:19:15.817Z,85.28
2022-12-03T09:21:44.754Z,84.49
2022-12-03T09:24:13.000Z,84.62
2022-12-03T09:26:41.186Z,84.72
2022-12-03T09:29:12.139Z,85.03
2022-12-03T09:31:40.522Z,84.95
2022-12-03T09:34:09.938Z,84.91
2022-12-03T09:36:38.283Z,85.56
2022-12-03T09:39:06.322Z,85.98
2022-12-03T09:41:34.246Z,85.83
2022-12-03T09:44:04.369Z,85.83
2022-12-03T09:46:35.168Z,84.81
2022-12-03T09:49:03.770Z,84.91
2022-12-03T09:51:36.340Z,84.66
2022-12-03T09:54:06.286Z,84.87
2022-12-03T09:56:38.953Z,84.21
2022-12-03T09:59:08.383Z,84.08
2022-12-03T10:01:36.233Z,84.88
2022-12-03T10:04:04.407Z,84.79
2022-12-03T10:06:33.489Z,85.68
2022-12-03T10:09:01.766Z,85.80
2022-12-03T10:11:31.428Z,84.41
2022-12-03T10:13:59.879Z,84.88
2022-12-03T10:16:30.331Z,84.51
2022-12-03T10:19:01.359Z,85.02
2022-12-03T10:21:38.412Z,85.32
2022-12-03T10:24:26.052Z,85.34
2022-12-03T10:26:55.606Z,85.19
2022-12-03T10:29:31.325Z,84.98
2022-12-03T10:32:02.924Z,85.25
2022-12-03T10:34:32.657Z,85.51
2022-12-03T10:37:15.405Z,85.06
2022-12-03T10:40:00.297Z,85.10
2022-12-03T10:42:30.339Z,84.57
2022-12-03T10:45:19.074Z,85.04
2022-12-03T10:48:07.912Z,84.52
2022-12-03T10:50:36.452Z,85.07
2022-12-03T10:53:05.978Z,84.62
2022-12-03T10:55:39.684Z,84.52
2022-12-03T10:58:11.735Z,84.88
2022-12-03T11:00:39.890Z,84.40
2022-12-03T11:03:19.277Z,85.10
2022-12-03T11:05:47.871Z,85.13
2022-12-03T11:08:18.760Z,85.41
2022-12-03T11:10:57.143Z,85.15
2022-12-03T11:13:51.368Z,85.62
2022-12-03T11:17:08.709Z,85.76
2022-12-03T11:19:51.117Z,85.48
2022-12-03T11:22:30.079Z,85.51
2022-12-03T11:25:32.070Z,84.82
2022-12-03T11:28:37.575Z,84.59
2022-12-03T11:31:14.952Z,84.71
2022-12-03T11:33:44.827Z,84.75
2022-12-03T11:36:31.650Z,84.44
2022-12-03T11:39:04.429Z,84.46
2022-12-03T11:41:34.150Z,84.72
2022-12-03T11:44:06.599Z,85.04
2022-12-03T11:46:44.530Z,84.82
2022-12-03T11:49:30.749Z,84.68
2022-12-03T11:51:59.581Z,84.40
2022-12-03T11:54:27.602Z,84.11
2022-12-03T11:56:56.411Z,84.04
2022-12-03T11:59:24.661Z,83.07
2022-12-03T12:01:53.774Z,83.91
2022-12-03T12:04:31.036Z,83.47
2022-12-03T12:06:58.715Z,83.64
2022-12-03T12:09:52.381Z,82.97
2022-12-03T12:12:27.869Z,82.32
2022-12-03T12:14:56.448Z,82.86
2022-12-03T12:17:36.171Z,83.20
2022-12-03T12:20:28.495Z,83.63
2022-12-03T12:22:56.822Z,83.37
2022-12-03T12:25:42.258Z,83.49
2022-12-03T12:28:10.012Z,83.51
2022-12-03T12:30:37.994Z,83.77
2022-12-03T12:33:26.144Z,83.59
2022-12-03T12:35:55.103Z,84.69
2022-12-03T12:38:24.234Z,83.87
2022-12-03T12:40:52.537Z,84.62
2022-12-03T12:43:25.346Z,84.02
2022-12-03T12:45:55.044Z,84.13
2022-12-03T12:48:26.788Z,83.75
2022-12-03T12:51:01.010Z,83.39
2022-12-03T12:53:31.412Z,84.54
2022-12-03T12:56:01.132Z,83.88
2022-12-03T12:58:31.667Z,84.73
2022-12-03T13:01:02.254Z,84.93
2022-12-03T13:03:35.333Z,84.37
2022-12-03T13:06:04.013Z,84.02
2022-12-03T13:08:34.823Z,84.19
2022-12-03T13:11:04.077Z,84.18
2022-12-03T13:13:43.101Z,84.35
2022-12-03T13:16:17.040Z,84.10
2022-12-03T13:18:48.642Z,84.44
2022-12-03T13:21:23.022Z,84.33
2022-12-03T13:23:53.362Z,84.87
2022-12-03T13:26:34.569Z,84.77
2022-12-03T13:29:11.908Z,84.84
2022-12-03T13:31:43.751Z,84.99
2022-12-03T13:34:19.873Z,84.83
2022-12-03T13:36:55.352Z,84.31
2022-12-03T13:39:28.853Z,84.67
2022-12-03T13:42:14.246Z,84.84
2022-12-03T13:44:46.743Z,84.61
2022-12-03T13:47:19.431Z,84.83
2022-12-03T13:49:54.075Z,84.95
2022-12-03T13:52:24.815Z,84.12
2022-12-03T13:54:55.242Z,83.86
2022-12-03T13:57:23.417Z,84.65
2022-12-03T13:59:51.524Z,84.15
2022-12-03T14:02:20.094Z,85.02
2022-12-03T14:04:49.197Z,84.73
2022-12-03T14:07:17.477Z,85.00
2022-12-03T14:09:45.110Z,85.54
2022-12-03T14:12:33.897Z,85.54
2022-12-03T14:15:02.328Z,85.70
2022-12-03T14:17:31.144Z,85.22
2022-12-03T14:20:01.631Z,85.38
2022-12-03T14:22:30.416Z,85.86
2022-12-03T14:24:58.866Z,85.75
2022-12-03T14:27:27.760Z,85.46
2022-12-03T14:29:55.814Z,85.98
2022-12-03T14:32:24.121Z,85.64
2022-12-03T14:34:51.834Z,85.60
2022-12-03T14:37:21.197Z,84.89
2022-12-03T14:39:48.824Z,84.68
2022-12-03T14:42:18.597Z,85.10
2022-12-03T14:44:48.837Z,85.02
2022-12-03T14:47:18.925Z,85.58
2022-12-03T14:49:47.044Z,85.41
2022-12-03T14:52:15.767Z,85.41
2022-12-03T14:54:45.460Z,85.61
2022-12-03T14:57:15.260Z,84.94
2022-12-03T14:59:44.054Z,84.97
2022-12-03T15:02:13.634Z,84.90
2022-12-03T15:04:42.013Z,84.93
2022-12-03T15:07:10.237Z,85.89
2022-12-03T15:09:37.927Z,84.86
2022-12-03T15:12:08.701Z,85.67
2022-12-03T15:14:36.407Z,86.04
2022-12-03T15:17:04.624Z,86.57
2022-12-03T15:19:32.348Z,86.22
2022-12-03T15:22:00.460Z,85.92
2022-12-03T15:24:28.618Z,86.26
2022-12-03T15:26:56.797Z,86.50
2022-12-03T15:29:26.050Z,86.38
2022-12-03T15:31:54.079Z,86.30
2022-12-03T15:34:23.004Z,86.07
2022-12-03T15:36:51.399Z,86.24
2022-12-03T15:39:19.075Z,86.72
2022-12-03T15:41:47.280Z,86.40
2022-12-03T15:44:14.953Z,86.82
2022-12-03T15:46:44.315Z,87.12
2022-12-03T15:49:12.780Z,86.90
2022-12-03T15:51:40.853Z,86.50
2022-12-03T15:54:08.474Z,86.11
2022-12-03T15:56:37.614Z,86.44
2022-12-03T15:59:05.840Z,86.75
2022-12-03T16:01:33.722Z,86.02
2022-12-03T16:04:03.444Z,86.59
2022-12-03T16:06:31.099Z,86.62
2022-12-03T16:08:58.756Z,86.83
2022-12-03T16:11:26.404Z,86.66
2022-12-03T16:13:54.311Z,86.28
2022-12-03T16:16:22.028Z,85.97
2022-12-03T16:18:50.078Z,85.89
2022-12-03T16:21:23.542Z,85.72
2022-12-03T16:23:54.691Z,85.92
2022-12-03T16:26:22.674Z,86.63
2022-12-03T16:28:50.348Z,85.84
2022-12-03T16:31:18.942Z,85.75
2022-12-03T16:33:47.039Z,86.63
2022-12-03T16:36:15.887Z,86.68
2022-12-03T16:38:45.373Z,86.67
2022-12-03T16:41:12.995Z,87.30
2022-12-03T16:43:41.168Z,86.48
2022-12-03T16:46:25.463Z,88.02
2022-12-03T16:48:55.441Z,87.75
2022-12-03T16:51:26.432Z,87.57
2022-12-03T16:53:55.943Z,87.68
2022-12-03T16:56:23.638Z,88.01
2022-12-03T16:58:51.293Z,88.10
2022-12-03T17:01:19.034Z,88.16
2022-12-03T17:03:47.131Z,88.68
2022-12-03T17:06:14.899Z,87.94
2022-12-03T17:08:48.772Z,88.29
2022-12-03T17:11:19.206Z,88.38
2022-12-03T17:13:47.357Z,88.99
2022-12-03T17:16:15.584Z,88.76
2022-12-03T17:18:44.678Z,89.00
2022-12-03T17:21:12.640Z,88.43
2022-12-03T17:23:40.449Z,88.89
2022-12-03T17:26:08.104Z,89.17
2022-12-03T17:28:37.469Z,89.10
2022-12-03T17:31:05.401Z,88.12
2022-12-03T17:33:33.246Z,88.36
2022-12-03T17:36:01.556Z,89.23
2022-12-03T17:38:31.629Z,88.87
2022-12-03T17:41:03.829Z,88.99
2022-12-03T17:43:31.882Z,89.13
2022-12-03T17:46:01.212Z,88.42
2022-12-03T17:48:30.035Z,89.42
2022-12-03T17:50:58.030Z,88.51
2022-12-03T17:53:26.573Z,89.10
2022-12-03T17:55:54.268Z,89.38
2022-12-03T17:58:22.065Z,89.16
2022-12-03T18:00:49.696Z,88.92
2022-12-03T18:03:19.802Z,89.67
2022-12-03T18:05:47.461Z,89.24
2022-12-03T18:08:15.394Z,89.51
2022-12-03T18:10:43.084Z,89.42
2022-12-03T18:13:10.970Z,88.98
2022-12-03T18:15:39.558Z,89.96
2022-12-03T18:18:07.424Z,89.25
2022-12-03T18:20:36.682Z,88.75
2022-12-03T18:23:04.905Z,89.44
2022-12-03T18:25:32.894Z,89.29
2022-12-03T18:28:00.508Z,89.38
2022-12-03T18:30:28.611Z,89.44
2022-12-03T18:32:56.353Z,90.24
2022-12-03T18:35:24.306Z,90.84
2022-12-03T18:37:53.358Z,91.71
2022-12-03T18:40:24.893Z,92.26
2022-12-03T18:42:54.398Z,92.66
2022-12-03T18:45:22.369Z,93.24
2022-12-03T18:47:50.268Z,93.21
2022-12-03T18:50:18.668Z,92.08
2022-12-03T18:52:46.402Z,91.97
2022-12-03T18:55:19.724Z,91.79
2022-12-03T18:57:47.393Z,92.13
2022-12-03T19:00:17.002Z,92.57
2022-12-03T19:05:33.687Z,92.74
2022-12-03T19:08:02.069Z,91.71
2022-12-03T19:10:31.743Z,89.67
2022-12-03T19:12:59.400Z,88.83
2022-12-03T19:15:27.047Z,88.87
2022-12-03T19:17:54.705Z,88.59
2022-12-03T19:20:23.597Z,87.82
2022-12-03T19:22:51.258Z,88.50
2022-12-03T19:25:19.114Z,87.75
2022-12-03T19:27:49.994Z,88.66
2022-12-03T19:30:18.197Z,88.07
2022-12-03T19:32:45.883Z,88.61
2022-12-03T19:35:13.557Z,87.28
2022-12-03T19:37:41.253Z,87.71
2022-12-03T19:40:11.222Z,87.25
2022-12-03T19:42:39.046Z,87.04
2022-12-03T19:45:09.393Z,86.65
2022-12-03T19:47:37.939Z,87.01
2022-12-03T19:50:07.132Z,87.08
2022-12-03T19:52:36.209Z,86.79
2022-12-03T19:55:05.054Z,87.01
2022-12-03T19:57:32.697Z,86.72
2022-12-03T20:00:01.076Z,86.90
2022-12-03T20:02:30.494Z,87.32
2022-12-03T20:04:58.230Z,87.80
2022-12-03T20:07:26.368Z,87.17
2022-12-03T20:09:54.436Z,87.72
2022-12-03T20:12:22.630Z,87.42
2022-12-03T20:14:51.576Z,87.67
2022-12-03T20:17:19.580Z,87.60
2022-12-03T20:19:49.016Z,88.86
2022-12-03T20:22:16.931Z,88.87
2022-12-03T20:24:44.600Z,87.58
2022-12-03T20:27:12.601Z,86.40
2022-12-03T20:29:40.512Z,85.98
2022-12-03T20:32:08.717Z,86.88
2022-12-03T20:34:36.488Z,86.42
2022-12-03T20:37:06.507Z,86.96
2022-12-03T20:39:34.220Z,86.80
2022-12-03T20:42:02.223Z,87.14
2022-12-03T20:44:29.939Z,86.72
2022-12-03T20:46:57.838Z,87.28
2022-12-03T20:49:25.530Z,87.35
2022-12-03T20:51:53.180Z,87.03
2022-12-03T20:54:22.199Z,86.63
2022-12-03T20:56:50.444Z,86.83
2022-12-03T20:59:19.278Z,86.93
2022-12-03T21:01:47.050Z,87.29
2022-12-03T21:04:16.291Z,86.87
2022-12-03T21:06:44.089Z,86.81
2022-12-03T21:09:12.929Z,86.30
2022-12-03T21:11:43.858Z,86.94
2022-12-03T21:14:12.383Z,87.28
2022-12-03T21:19:30.604Z,87.02
2022-12-03T21:21:58.651Z,87.05
2022-12-03T21:24:26.544Z,86.08
2022-12-03T21:26:55.958Z,86.62
2022-12-03T21:29:24.371Z,86.20
2022-12-03T21:31:52.450Z,86.35
2022-12-03T21:34:20.333Z,86.17
2022-12-03T21:36:48.392Z,87.11
2022-12-03T21:39:16.032Z,86.59
2022-12-03T21:42:19.337Z,86.91
2022-12-03T21:44:33.160Z,87.30
2022-12-03T21:47:10.774Z,86.92
2022-12-03T21:49:41.844Z,86.36
2022-12-03T21:52:10.302Z,86.42
2022-12-03T21:54:37.949Z,86.27
2022-12-03T21:57:06.086Z,86.40
2022-12-03T21:59:35.204Z,86.46
2022-12-03T22:02:03.186Z,86.46
2022-12-03T22:04:30.997Z,86.64
2022-12-03T22:06:59.231Z,86.15
2022-12-03T22:09:27.258Z,86.88
2022-12-03T22:11:57.187Z,86.73
2022-12-03T22:14:24.835Z,87.10
2022-12-03T22:16:54.191Z,87.24
2022-12-03T22:19:23.375Z,87.22
2022-12-03T22:21:51.084Z,87.05
2022-12-03T22:24:19.558Z,87.22
2022-12-03T22:26:47.478Z,87.50
2022-12-03T22:29:15.156Z,87.81
2022-12-03T22:31:43.285Z,87.39
2022-12-03T22:34:12.319Z,87.45
2022-12-03T22:36:39.973Z,87.41
2022-12-03T22:39:08.050Z,87.57
2022-12-03T22:41:35.711Z,87.53
2022-12-03T22:44:03.788Z,87.87
2022-12-03T22:46:31.594Z,88.32
2022-12-03T22:49:03.438Z,89.14
2022-12-03T22:51:36.274Z,88.82
2022-12-03T22:54:05.409Z,88.83
2022-12-03T22:56:33.654Z,88.21
2022-12-03T22:59:02.152Z,87.70
2022-12-03T23:01:32.698Z,87.38
2022-12-03T23:04:02.187Z,87.63
2022-12-03T23:06:31.595Z,88.41
2022-12-03T23:09:01.169Z,88.17
2022-12-03T23:11:29.615Z,88.46
2022-12-03T23:13:59.033Z,88.41
2022-12-03T23:16:29.837Z,88.32
2022-12-03T23:18:59.497Z,88.18
2022-12-03T23:21:30.630Z,87.48
2022-12-03T23:24:00.564Z,88.06
2022-12-03T23:26:29.181Z,87.51
2022-12-03T23:28:57.523Z,87.96
2022-12-03T23:31:28.063Z,87.68
2022-12-03T23:33:56.871Z,88.12
2022-12-03T23:36:26.338Z,88.15
2022-12-03T23:38:55.608Z,87.97
2022-12-03T23:41:25.131Z,88.74
2022-12-03T23:43:54.031Z,87.91
2022-12-03T23:46:24.402Z,87.77
2022-12-03T23:48:52.949Z,88.17
2022-12-03T23:51:23.135Z,88.60
2022-12-03T23:53:52.726Z,88.51
2022-12-03T23:56:22.829Z,87.76
2022-12-03T23:58:52.365Z,87.79
